Time;durP1;ratioP1;P1;durP2;ratioP2;P2;SDS_P1;SDS_P2;PMS_P1;PMS_P2;Temp;Humidity;BMP_temperature;BMP_pressure;BME280_temperature;BME280_humidity;BME280_pressure;Samples;Min_cycle;Max_cycle;Signal;HPM_P1;HPM_P2
2022/07/16 00:02:30;;;;;;;5.80;4.63;;;9.60;99.90;;;;;;4961724;28;20201;-69
2022/07/16 00:04:57;;;;;;;11.33;4.80;;;10.10;99.90;;;;;;4964781;28;20237;-68
2022/07/16 00:07:24;;;;;;;8.77;5.03;;;10.70;99.90;;;;;;4974234;28;20183;-68
2022/07/16 00:09:52;;;;;;;6.80;4.50;;;11.00;99.90;;;;;;4974405;28;20587;-69
2022/07/16 00:12:19;;;;;;;9.33;4.80;;;11.40;99.90;;;;;;4972371;28;20221;-68
2022/07/16 00:14:46;;;;;;;6.77;3.83;;;11.80;99.90;;;;;;4970376;28;20214;-67
2022/07/16 00:17:14;;;;;;;7.47;3.87;;;11.90;99.90;;;;;;4970745;28;20605;-68
2022/07/16 00:19:41;;;;;;;8.43;3.30;;;12.20;99.90;;;;;;4962974;28;20197;-69
2022/07/16 00:22:10;;;;;;;4.97;3.57;;;12.60;99.90;;;;;;4973924;28;20193;-68
2022/07/16 00:24:38;;;;;;;7.77;3.50;;;13.00;99.90;;;;;;4968841;28;20195;-69
2022/07/16 00:27:06;;;;;;;8.33;3.30;;;12.90;99.90;;;;;;4962458;28;20206;-69
2022/07/16 00:29:33;;;;;;;6.43;3.37;;;12.80;99.90;;;;;;4962099;28;20290;-70
2022/07/16 00:32:01;;;;;;;9.37;4.13;;;13.10;99.90;;;;;;4961045;28;20278;-68
2022/07/16 00:34:28;;;;;;;8.33;3.87;;;13.30;99.90;;;;;;4954045;28;20591;-69
2022/07/16 00:36:55;;;;;;;9.03;3.70;;;13.40;99.90;;;;;;4955283;29;20276;-68
2022/07/16 00:39:23;;;;;;;6.43;3.30;;;13.20;99.90;;;;;;4964260;28;20326;-69
2022/07/16 00:41:54;;;;;;;6.40;3.30;;;13.50;99.90;;;;;;4956166;28;20218;-68
2022/07/16 00:44:21;;;;;;;4.53;2.93;;;13.30;99.90;;;;;;4971310;28;20711;-68
2022/07/16 00:46:50;;;;;;;4.47;2.80;;;13.70;99.90;;;;;;4970352;28;20592;-68
2022/07/16 00:49:19;;;;;;;6.20;2.77;;;13.80;99.90;;;;;;4954813;28;20559;-68
2022/07/16 00:51:52;;;;;;;6.50;2.93;;;13.50;99.90;;;;;;4954888;28;20683;-68
2022/07/16 00:54:20;;;;;;;6.70;3.00;;;13.40;99.90;;;;;;4954923;28;20183;-68
2022/07/16 00:56:48;;;;;;;5.60;2.80;;;13.50;99.90;;;;;;4955023;28;20628;-68
2022/07/16 00:59:15;;;;;;;4.33;2.77;;;13.10;99.90;;;;;;4960722;28;20617;-68
2022/07/16 01:01:43;;;;;;;5.60;2.97;;;12.90;99.90;;;;;;4974098;28;20184;-68
2022/07/16 01:04:10;;;;;;;4.90;3.10;;;13.10;99.90;;;;;;4972760;28;20191;-68
2022/07/16 01:06:38;;;;;;;9.37;2.93;;;13.00;99.90;;;;;;4973969;28;20228;-68
2022/07/16 01:09:05;;;;;;;5.57;3.47;;;13.20;99.90;;;;;;4974196;28;20174;-68
2022/07/16 01:11:33;;;;;;;6.70;3.83;;;13.20;99.90;;;;;;4973952;28;20220;-68
2022/07/16 01:14:02;;;;;;;4.77;3.20;;;13.00;99.90;;;;;;4974012;28;20574;-68
2022/07/16 01:16:30;;;;;;;6.77;4.17;;;12.70;99.90;;;;;;4974066;28;20182;-68
2022/07/16 01:18:57;;;;;;;9.23;4.10;;;12.40;99.90;;;;;;4973925;28;20176;-67
2022/07/16 01:21:25;;;;;;;5.53;3.37;;;12.40;99.90;;;;;;4974135;28;20703;-68
2022/07/16 01:23:52;;;;;;;4.50;3.50;;;12.80;99.90;;;;;;4973943;28;20179;-68
2022/07/16 01:26:20;;;;;;;5.50;3.33;;;13.00;99.90;;;;;;4974356;28;20179;-68
2022/07/16 01:28:48;;;;;;;5.07;3.47;;;13.10;99.90;;;;;;4973868;28;20683;-68
2022/07/16 01:31:15;;;;;;;6.80;3.00;;;13.20;99.90;;;;;;4973743;28;20258;-68
2022/07/16 01:33:43;;;;;;;4.90;3.50;;;12.90;99.90;;;;;;4973665;28;20188;-68
2022/07/16 01:36:14;;;;;;;5.07;2.70;;;13.40;99.90;;;;;;4964656;28;20194;-68
2022/07/16 01:38:45;;;;;;;4.53;2.97;;;14.20;99.90;;;;;;4957019;28;20190;-68
2022/07/16 01:41:13;;;;;;;6.17;3.47;;;14.40;99.90;;;;;;4963112;28;20187;-68
2022/07/16 01:43:42;;;;;;;7.03;3.73;;;14.80;99.90;;;;;;4956814;28;20200;-68
2022/07/16 01:46:10;;;;;;;4.93;3.10;;;15.30;99.90;;;;;;4958203;29;20180;-68
2022/07/16 01:48:37;;;;;;;4.60;3.20;;;15.60;99.90;;;;;;4958140;28;20176;-68
2022/07/16 01:51:05;;;;;;;9.23;2.67;;;15.80;99.90;;;;;;4966700;28;20257;-68
2022/07/16 01:53:33;;;;;;;8.47;3.63;;;15.90;99.90;;;;;;4958043;29;20263;-68
2022/07/16 01:56:01;;;;;;;4.93;2.93;;;16.10;99.90;;;;;;4958016;29;20243;-68
2022/07/16 01:58:29;;;;;;;4.20;2.90;;;16.70;99.90;;;;;;4957918;28;20181;-69
2022/07/16 02:00:56;;;;;;;5.30;2.57;;;16.70;99.90;;;;;;4965749;28;20187;-68
2022/07/16 02:03:24;;;;;;;3.80;2.23;;;16.50;99.90;;;;;;4977004;28;20175;-68
2022/07/16 02:05:52;;;;;;;7.13;2.40;;;16.40;99.90;;;;;;4962568;28;20223;-68
2022/07/16 02:08:20;;;;;;;2.87;2.23;;;16.20;99.90;;;;;;4966903;28;20191;-68
2022/07/16 02:10:47;;;;;;;4.33;2.50;;;15.90;99.90;;;;;;4969650;28;20302;-69
2022/07/16 02:13:15;;;;;;;3.47;2.33;;;16.50;99.90;;;;;;4958042;29;20630;-68
2022/07/16 02:15:43;;;;;;;6.50;2.37;;;16.90;99.90;;;;;;4957890;29;20207;-69
2022/07/16 02:18:10;;;;;;;1.80;1.53;;;16.40;99.90;;;;;;4957757;28;20176;-69
2022/07/16 02:20:38;;;;;;;5.13;1.80;;;16.10;99.90;;;;;;4966932;28;20195;-70
2022/07/16 02:23:06;;;;;;;5.20;1.70;;;15.80;99.90;;;;;;4976403;28;20645;-70
2022/07/16 02:25:34;;;;;;;4.10;2.10;;;15.40;99.90;;;;;;4960017;28;20184;-69
2022/07/16 02:28:07;;;;;;;5.50;2.23;;;14.80;99.90;;;;;;4957096;29;20204;-70
2022/07/16 02:30:41;;;;;;;4.97;2.20;;;14.70;99.90;;;;;;4967564;28;20549;-70
2022/07/16 02:33:10;;;;;;;3.80;2.43;;;14.60;99.90;;;;;;4957172;28;20188;-69
2022/07/16 02:35:39;;;;;;;6.33;2.60;;;14.20;99.90;;;;;;4957075;28;20183;-68
2022/07/16 02:38:07;;;;;;;4.70;2.00;;;14.20;99.90;;;;;;4958029;28;20184;-68
2022/07/16 02:40:36;;;;;;;4.77;2.30;;;14.00;99.90;;;;;;4975280;28;20241;-68
2022/07/16 02:43:06;;;;;;;3.23;2.20;;;14.10;99.90;;;;;;4976359;28;20179;-69
2022/07/16 02:45:36;;;;;;;4.43;1.90;;;14.00;99.90;;;;;;4968977;28;20180;-68
2022/07/16 02:48:04;;;;;;;6.90;2.40;;;14.40;99.90;;;;;;4956931;29;20267;-69
2022/07/16 02:50:32;;;;;;;4.23;1.97;;;15.10;99.90;;;;;;4960813;28;20692;-68
2022/07/16 02:53:00;;;;;;;4.17;2.40;;;15.20;99.90;;;;;;4956661;29;20543;-68
2022/07/16 02:55:28;;;;;;;3.67;2.40;;;15.40;99.90;;;;;;4956464;28;20287;-68
2022/07/16 02:57:56;;;;;;;6.50;2.63;;;16.00;99.90;;;;;;4956577;28;20180;-68
2022/07/16 03:00:25;;;;;;;5.93;2.87;;;16.10;99.90;;;;;;4956797;29;20642;-68
2022/07/16 03:02:53;;;;;;;6.53;3.17;;;16.10;99.90;;;;;;4965987;28;20673;-69
2022/07/16 03:05:21;;;;;;;6.00;3.30;;;16.00;99.90;;;;;;4956376;28;20191;-70
2022/07/16 03:07:48;;;;;;;8.00;3.23;;;16.10;99.90;;;;;;4957052;28;20544;-69
2022/07/16 03:10:16;;;;;;;6.20;3.07;;;16.30;99.90;;;;;;4974034;28;20222;-69
2022/07/16 03:12:44;;;;;;;6.57;3.40;;;16.00;99.90;;;;;;4975953;28;20168;-69
2022/07/16 03:15:12;;;;;;;8.50;3.30;;;15.90;99.90;;;;;;4975957;28;20186;-69
2022/07/16 03:17:43;;;;;;;7.73;3.00;;;15.80;99.90;;;;;;4971105;28;20270;-69
2022/07/16 03:20:12;;;;;;;9.27;3.40;;;16.00;99.90;;;;;;4956604;28;20234;-69
2022/07/16 03:22:49;;;;;;;5.80;3.37;;;16.30;99.90;;;;;;4956211;28;20191;-69
2022/07/16 03:25:17;;;;;;;6.53;3.20;;;16.70;99.90;;;;;;4956421;28;20235;-69
2022/07/16 03:27:45;;;;;;;8.40;4.13;;;17.20;99.90;;;;;;4956232;28;20179;-69
2022/07/16 03:30:14;;;;;;;7.83;3.53;;;17.60;99.90;;;;;;4961439;28;20213;-70
2022/07/16 03:32:42;;;;;;;9.13;3.70;;;18.10;99.90;;;;;;4968633;28;20672;-69
2022/07/16 03:35:12;;;;;;;4.23;2.37;;;18.40;99.90;;;;;;4956059;28;20187;-69
2022/07/16 03:40:27;;;;;;;4.33;2.10;;;17.50;99.90;;;;;;4955690;29;20306;-69
2022/07/16 03:42:55;;;;;;;5.70;2.70;;;17.00;99.90;;;;;;4955780;28;20267;-69
2022/07/16 03:45:23;;;;;;;4.43;2.17;;;16.60;99.90;;;;;;4955865;28;20186;-69
2022/07/16 03:47:51;;;;;;;3.87;1.83;;;16.20;99.90;;;;;;4960681;28;20184;-69
2022/07/16 03:50:20;;;;;;;3.10;1.83;;;16.30;99.90;;;;;;4959676;28;20558;-69
2022/07/16 03:52:48;;;;;;;2.63;2.03;;;16.30;99.90;;;;;;4954195;28;20226;-68
2022/07/16 03:55:16;;;;;;;2.93;1.60;;;16.30;99.90;;;;;;4954474;28;20180;-68
2022/07/16 03:57:45;;;;;;;3.40;1.80;;;16.30;99.90;;;;;;4957864;28;20265;-68
2022/07/16 04:00:13;;;;;;;3.63;1.93;;;16.50;99.90;;;;;;4973318;28;20630;-68
2022/07/16 04:02:41;;;;;;;4.60;1.60;;;16.50;99.90;;;;;;4963897;28;20191;-68
2022/07/16 04:05:09;;;;;;;4.43;2.23;;;16.70;99.90;;;;;;4971241;28;20198;-68
2022/07/16 04:07:37;;;;;;;3.40;1.77;;;16.70;99.90;;;;;;4966840;28;20210;-68
2022/07/16 04:10:05;;;;;;;4.13;2.00;;;16.60;99.90;;;;;;4965022;28;20238;-69
2022/07/16 04:12:33;;;;;;;3.60;2.13;;;16.60;99.90;;;;;;4973034;28;20201;-69
2022/07/16 04:15:01;;;;;;;7.47;1.80;;;16.60;99.90;;;;;;4958404;28;20195;-69
2022/07/16 04:17:29;;;;;;;3.83;1.97;;;16.50;99.90;;;;;;4956284;28;20186;-68
2022/07/16 04:19:57;;;;;;;4.00;1.60;;;16.20;99.90;;;;;;4969147;28;20191;-68
2022/07/16 04:22:24;;;;;;;3.57;1.87;;;16.10;99.90;;;;;;4968854;28;20262;-69
2022/07/16 04:24:52;;;;;;;3.23;1.83;;;16.10;99.90;;;;;;4955696;28;20203;-68
2022/07/16 04:27:20;;;;;;;3.57;2.03;;;15.90;99.90;;;;;;4973210;28;20198;-69
2022/07/16 04:29:47;;;;;;;2.40;1.90;;;15.70;99.90;;;;;;4969281;28;20209;-69
2022/07/16 04:32:15;;;;;;;4.23;2.10;;;15.70;99.90;;;;;;4964554;28;20600;-69
2022/07/16 04:34:44;;;;;;;4.27;2.00;;;15.80;99.90;;;;;;4973256;28;20266;-69
2022/07/16 04:37:11;;;;;;;3.50;2.33;;;15.70;99.90;;;;;;4965536;28;20237;-69
2022/07/16 04:39:39;;;;;;;5.97;2.37;;;15.80;99.90;;;;;;4965564;28;20234;-69
2022/07/16 04:42:07;;;;;;;3.03;1.80;;;15.90;99.90;;;;;;4968602;28;20198;-68
2022/07/16 04:44:34;;;;;;;2.70;1.70;;;15.90;99.90;;;;;;4954973;28;20590;-68
2022/07/16 04:47:02;;;;;;;4.70;1.80;;;15.90;99.90;;;;;;4957924;28;20237;-69
2022/07/16 04:49:30;;;;;;;3.13;1.70;;;15.90;99.90;;;;;;4966314;28;20179;-69
2022/07/16 04:51:57;;;;;;;1.97;1.60;;;15.80;99.90;;;;;;4955646;28;20188;-69
2022/07/16 04:54:25;;;;;;;2.93;1.70;;;15.80;99.90;;;;;;4964952;28;20183;-69
2022/07/16 04:56:53;;;;;;;4.77;1.93;;;15.70;99.90;;;;;;4971375;28;20188;-69
2022/07/16 04:59:21;;;;;;;4.53;2.03;;;15.60;99.90;;;;;;4962081;28;20179;-69
2022/07/16 05:01:49;;;;;;;3.83;2.10;;;15.60;99.90;;;;;;4972997;28;20195;-69
2022/07/16 05:04:16;;;;;;;4.90;1.83;;;15.50;99.90;;;;;;4958352;28;20282;-68
2022/07/16 05:06:45;;;;;;;4.13;2.00;;;15.40;99.90;;;;;;4953852;28;20176;-69
2022/07/16 05:09:13;;;;;;;4.97;1.83;;;15.30;99.90;;;;;;4959468;28;20190;-68
2022/07/16 05:11:40;;;;;;;6.20;2.00;;;15.20;99.90;;;;;;4959565;28;20677;-68
2022/07/16 05:14:08;;;;;;;3.70;1.97;;;15.20;99.90;;;;;;4967623;28;20222;-69
2022/07/16 05:16:36;;;;;;;3.60;2.00;;;15.10;99.90;;;;;;4953866;28;20282;-69
2022/07/16 05:19:03;;;;;;;3.87;2.13;;;15.10;99.90;;;;;;4957481;28;20568;-68
2022/07/16 05:21:31;;;;;;;3.80;2.20;;;15.10;99.90;;;;;;4957685;28;20649;-69
2022/07/16 05:23:59;;;;;;;5.93;2.80;;;15.10;99.90;;;;;;4957922;29;20189;-68
2022/07/16 05:26:27;;;;;;;4.30;1.93;;;15.10;99.90;;;;;;4957756;29;20194;-68
2022/07/16 05:28:54;;;;;;;2.80;2.10;;;15.00;99.90;;;;;;4957640;29;20265;-69
2022/07/16 05:31:22;;;;;;;3.93;2.30;;;14.90;99.90;;;;;;4959738;28;20689;-69
2022/07/16 05:33:50;;;;;;;5.13;2.53;;;14.80;99.90;;;;;;4976628;28;20557;-68
2022/07/16 05:36:18;;;;;;;5.57;2.27;;;14.80;99.90;;;;;;4976321;28;20179;-68
2022/07/16 05:38:46;;;;;;;6.50;2.90;;;14.60;99.90;;;;;;4975340;28;20223;-69
2022/07/16 05:41:13;;;;;;;4.30;2.70;;;14.50;99.90;;;;;;4976431;28;20269;-69
2022/07/16 05:43:41;;;;;;;3.97;2.90;;;14.40;99.90;;;;;;4975516;28;20186;-69
2022/07/16 05:46:09;;;;;;;4.30;2.70;;;14.30;99.90;;;;;;4975837;28;20198;-69
2022/07/16 05:48:37;;;;;;;6.20;3.67;;;14.20;99.90;;;;;;4976239;28;20181;-69
2022/07/16 05:51:04;;;;;;;9.60;4.27;;;14.10;99.90;;;;;;4976000;28;20230;-69
2022/07/16 05:53:32;;;;;;;8.27;3.80;;;14.00;99.90;;;;;;4965178;28;20184;-69
2022/07/16 05:56:00;;;;;;;7.77;3.67;;;14.00;99.90;;;;;;4961348;28;20218;-69
2022/07/16 05:58:27;;;;;;;6.67;3.30;;;13.90;99.90;;;;;;4956678;29;20187;-69
2022/07/16 06:00:55;;;;;;;7.30;3.37;;;13.80;99.90;;;;;;4964502;28;20194;-68
2022/07/16 06:03:23;;;;;;;6.43;3.23;;;13.80;99.90;;;;;;4975972;28;20185;-68
2022/07/16 06:05:50;;;;;;;6.87;3.83;;;13.70;99.90;;;;;;4975830;28;20189;-68
2022/07/16 06:08:18;;;;;;;10.50;3.50;;;13.60;99.90;;;;;;4975663;28;20174;-69
2022/07/16 06:10:46;;;;;;;6.10;3.03;;;13.50;99.90;;;;;;4975640;28;20228;-68
2022/07/16 06:13:13;;;;;;;5.90;3.80;;;13.50;99.90;;;;;;4966321;28;20274;-68
2022/07/16 06:15:41;;;;;;;7.07;4.00;;;13.50;99.90;;;;;;4956369;28;20606;-68
2022/07/16 06:18:09;;;;;;;7.70;3.47;;;13.40;99.90;;;;;;4956371;29;20182;-68
2022/07/16 06:20:36;;;;;;;5.77;3.77;;;13.30;99.90;;;;;;4956362;29;20191;-68
2022/07/16 06:23:04;;;;;;;10.47;4.70;;;13.30;99.90;;;;;;4959633;28;20566;-68
2022/07/16 06:25:32;;;;;;;10.70;4.70;;;13.30;99.90;;;;;;4971898;28;20185;-69
2022/07/16 06:28:00;;;;;;;8.17;4.70;;;13.20;99.90;;;;;;4975187;28;20180;-68
2022/07/16 06:30:27;;;;;;;7.93;4.83;;;13.10;99.90;;;;;;4974953;28;20231;-68
2022/07/16 06:32:55;;;;;;;7.93;4.73;;;13.10;99.90;;;;;;4959972;28;20222;-69
2022/07/16 06:35:23;;;;;;;8.70;5.10;;;13.10;99.90;;;;;;4956147;28;20560;-68
2022/07/16 06:37:50;;;;;;;7.27;4.83;;;13.10;99.90;;;;;;4955830;28;20539;-69
2022/07/16 06:40:18;;;;;;;8.23;5.03;;;13.00;99.90;;;;;;4955799;29;20315;-69
2022/07/16 06:42:46;;;;;;;10.10;5.20;;;13.00;99.90;;;;;;4968945;28;20220;-69
2022/07/16 06:45:14;;;;;;;10.63;5.53;;;13.00;99.90;;;;;;4974951;28;20253;-68
2022/07/16 06:47:41;;;;;;;8.90;4.70;;;12.90;99.90;;;;;;4975197;28;20224;-69
2022/07/16 06:50:10;;;;;;;7.43;4.67;;;12.90;99.90;;;;;;4968916;28;20694;-69
2022/07/16 06:52:38;;;;;;;8.93;5.63;;;12.80;99.90;;;;;;4964483;28;20236;-69
2022/07/16 06:55:06;;;;;;;12.53;5.43;;;12.70;99.90;;;;;;4972812;28;20194;-69
2022/07/16 06:57:34;;;;;;;10.63;5.67;;;12.70;99.90;;;;;;4971696;28;20194;-69
2022/07/16 07:00:02;;;;;;;10.67;5.20;;;12.60;99.90;;;;;;4957974;28;20226;-69
2022/07/16 07:02:30;;;;;;;10.80;5.07;;;12.50;99.90;;;;;;4955202;28;20198;-69
2022/07/16 07:04:58;;;;;;;9.83;5.70;;;12.40;99.90;;;;;;4957683;28;20617;-69
2022/07/16 07:07:25;;;;;;;11.17;6.03;;;12.40;99.90;;;;;;4974847;28;20319;-69
2022/07/16 07:09:53;;;;;;;8.07;5.50;;;12.30;99.90;;;;;;4974383;28;20216;-69
2022/07/16 07:12:21;;;;;;;9.67;5.23;;;12.20;99.90;;;;;;4969372;28;20190;-69
2022/07/16 07:14:48;;;;;;;9.03;5.37;;;12.10;99.90;;;;;;4955402;28;20234;-70
2022/07/16 07:17:16;;;;;;;9.10;4.90;;;12.00;99.90;;;;;;4955351;29;20182;-69
2022/07/16 07:19:44;;;;;;;8.77;5.73;;;12.00;99.90;;;;;;4960618;28;20181;-69
2022/07/16 07:22:12;;;;;;;11.20;5.23;;;11.90;99.90;;;;;;4960940;28;20214;-69
2022/07/16 07:24:39;;;;;;;11.63;6.07;;;11.80;99.90;;;;;;4955118;28;20184;-69
2022/07/16 07:27:07;;;;;;;7.30;4.97;;;11.70;99.90;;;;;;4971934;28;20188;-69
2022/07/16 07:29:35;;;;;;;6.40;4.70;;;11.60;99.90;;;;;;4973068;28;20189;-69
2022/07/16 07:32:02;;;;;;;9.23;5.27;;;11.50;99.90;;;;;;4963808;28;20278;-69
2022/07/16 07:34:30;;;;;;;7.37;5.23;;;11.40;99.90;;;;;;4954911;28;20180;-69
2022/07/16 07:36:58;;;;;;;8.43;5.23;;;11.40;99.90;;;;;;4954865;28;20191;-69
2022/07/16 07:39:25;;;;;;;11.13;6.17;;;11.40;99.90;;;;;;4968645;28;20320;-69
2022/07/16 07:41:53;;;;;;;11.90;6.67;;;11.40;99.90;;;;;;4957024;28;20227;-69
2022/07/16 07:44:21;;;;;;;9.80;5.07;;;11.20;99.90;;;;;;4954660;28;20185;-69
2022/07/16 07:46:48;;;;;;;6.43;5.10;;;11.10;99.90;;;;;;4958401;28;20343;-69
2022/07/16 07:49:16;;;;;;;8.37;5.17;;;11.00;99.90;;;;;;4963845;28;20226;-69
2022/07/16 07:51:44;;;;;;;10.87;7.30;;;10.90;99.90;;;;;;4954530;29;20212;-70
2022/07/16 07:54:11;;;;;;;11.40;7.00;;;10.80;99.90;;;;;;4954449;29;20185;-69
2022/07/16 07:56:39;;;;;;;13.90;7.47;;;10.90;99.90;;;;;;4963125;28;20718;-69
2022/07/16 07:59:07;;;;;;;11.13;7.07;;;10.80;99.90;;;;;;4971381;28;20563;-69
2022/07/16 08:01:34;;;;;;;13.23;6.73;;;10.80;99.90;;;;;;4961292;28;20190;-69
2022/07/16 08:04:02;;;;;;;14.03;7.13;;;10.70;99.90;;;;;;4964547;28;20180;-69
2022/07/16 08:06:30;;;;;;;10.13;6.03;;;10.70;99.90;;;;;;4973591;28;20177;-66
2022/07/16 08:08:58;;;;;;;10.80;6.17;;;10.70;99.90;;;;;;4972082;28;20219;-68
2022/07/16 08:11:25;;;;;;;12.13;6.53;;;10.70;99.90;;;;;;4973390;28;20273;-68
2022/07/16 08:13:53;;;;;;;12.20;7.70;;;10.70;99.90;;;;;;4973249;28;20253;-69
2022/07/16 08:16:21;;;;;;;14.73;7.20;;;10.80;99.90;;;;;;4973136;28;20182;-67
2022/07/16 08:18:48;;;;;;;8.37;6.07;;;10.80;99.90;;;;;;4967634;28;20187;-67
2022/07/16 08:21:16;;;;;;;15.67;8.03;;;10.80;99.90;;;;;;4954207;29;20177;-67
2022/07/16 08:26:30;;;;;;;13.60;7.70;;;10.70;99.90;;;;;;4954583;29;20198;-68
2022/07/16 08:28:57;;;;;;;11.10;6.97;;;10.70;99.90;;;;;;4955444;28;20190;-68
2022/07/16 08:31:25;;;;;;;13.43;6.80;;;10.80;99.90;;;;;;4953978;29;20752;-68
2022/07/16 08:33:53;;;;;;;10.97;6.73;;;10.70;99.90;;;;;;4954217;28;20560;-69
2022/07/16 08:36:21;;;;;;;12.57;7.10;;;10.60;99.90;;;;;;4954023;28;20583;-68
2022/07/16 08:38:48;;;;;;;11.13;6.83;;;10.60;99.90;;;;;;4962818;28;20318;-69
2022/07/16 08:41:17;;;;;;;12.40;6.67;;;10.50;99.90;;;;;;4973369;28;20178;-68
2022/07/16 08:43:45;;;;;;;10.23;6.80;;;10.50;99.90;;;;;;4973409;28;20236;-69
2022/07/16 08:46:22;;;;;;;13.63;7.27;;;10.40;99.90;;;;;;4961978;28;20196;-68
2022/07/16 08:48:52;;;;;;;14.73;7.00;;;10.30;99.90;;;;;;4963287;28;20708;-69
2022/07/16 08:51:30;;;;;;;13.80;7.60;;;10.30;99.90;;;;;;4973490;28;20302;-69
2022/07/16 08:54:06;;;;;;;13.40;7.73;;;10.20;99.90;;;;;;4974336;28;20251;-69
2022/07/16 08:56:35;;;;;;;13.90;7.17;;;10.20;99.90;;;;;;4974278;28;20533;-69
2022/07/16 08:59:05;;;;;;;14.80;8.17;;;10.30;99.90;;;;;;4964726;28;20190;-69
2022/07/16 09:01:33;;;;;;;13.90;8.00;;;10.20;99.90;;;;;;4974773;28;20645;-69
2022/07/16 09:04:02;;;;;;;9.47;7.47;;;10.30;99.90;;;;;;4974549;28;20210;-70
2022/07/16 09:06:31;;;;;;;16.33;9.47;;;10.30;99.90;;;;;;4974297;28;20182;-67
2022/07/16 09:08:59;;;;;;;13.93;8.33;;;10.30;99.90;;;;;;4961617;28;20191;-70
2022/07/16 09:11:30;;;;;;;17.90;9.07;;;10.30;99.90;;;;;;4955626;28;20568;-70
2022/07/16 09:14:04;;;;;;;13.50;7.87;;;10.20;99.90;;;;;;4954965;29;20610;-69
2022/07/16 09:16:38;;;;;;;16.90;8.67;;;10.20;99.90;;;;;;4955467;28;20202;-68
2022/07/16 09:19:15;;;;;;;14.77;8.60;;;10.20;99.90;;;;;;4954968;28;20176;-69
2022/07/16 09:22:06;;;;;;;12.97;9.30;;;10.10;99.90;;;;;;4958640;28;20607;-69
2022/07/16 09:24:38;;;;;;;20.33;10.97;;;10.20;99.90;;;;;;4954687;28;20180;-69
2022/07/16 09:27:19;;;;;;;19.30;11.13;;;10.10;99.90;;;;;;4955175;28;20714;-68
2022/07/16 09:29:58;;;;;;;18.40;11.17;;;10.10;99.90;;;;;;4954084;28;20735;-69
2022/07/16 09:32:32;;;;;;;17.47;11.07;;;10.10;99.90;;;;;;4954897;28;20242;-68
2022/07/16 09:35:13;;;;;;;21.20;11.17;;;10.10;99.90;;;;;;4954696;28;20180;-68
2022/07/16 09:38:00;;;;;;;17.17;11.50;;;10.10;99.90;;;;;;4954623;28;20179;-68
2022/07/16 09:40:40;;;;;;;17.63;10.53;;;10.10;99.90;;;;;;4972420;28;20603;-68
2022/07/16 09:43:14;;;;;;;18.90;10.50;;;10.10;99.90;;;;;;4954513;29;20227;-69
2022/07/16 09:45:46;;;;;;;21.23;11.23;;;10.10;99.90;;;;;;4954806;28;20190;-68
2022/07/16 09:48:23;;;;;;;19.27;10.97;;;10.10;99.90;;;;;;4963130;28;20180;-68
2022/07/16 09:50:52;;;;;;;17.37;10.57;;;10.00;99.90;;;;;;4971444;28;20632;-69
2022/07/16 09:53:23;;;;;;;18.57;11.47;;;10.00;99.90;;;;;;4953373;29;20691;-69
2022/07/16 09:56:04;;;;;;;20.43;10.30;;;10.00;99.90;;;;;;4954508;29;20184;-69
2022/07/16 09:58:32;;;;;;;14.77;9.73;;;10.10;99.90;;;;;;4954529;28;20637;-68
2022/07/16 10:01:01;;;;;;;12.87;8.33;;;10.20;99.90;;;;;;4957273;28;20190;-69
2022/07/16 10:03:30;;;;;;;13.70;8.50;;;10.30;99.90;;;;;;4974215;28;20235;-69
2022/07/16 10:05:58;;;;;;;17.30;8.20;;;10.40;99.90;;;;;;4977394;28;20696;-69
2022/07/16 10:08:26;;;;;;;12.93;7.53;;;10.30;99.90;;;;;;4977157;28;20187;-68
2022/07/16 10:10:53;;;;;;;13.97;7.20;;;10.30;99.90;;;;;;4975450;28;20223;-69
2022/07/16 10:13:27;;;;;;;12.90;8.00;;;10.30;99.90;;;;;;4976931;28;20180;-69
2022/07/16 10:15:55;;;;;;;11.57;7.43;;;10.30;99.90;;;;;;4977160;28;20251;-69
2022/07/16 10:18:45;;;;;;;7.87;4.97;;;10.30;99.90;;;;;;4977034;28;20234;-70
2022/07/16 10:21:21;;;;;;;7.47;5.10;;;10.40;99.90;;;;;;4964605;28;20210;-70
2022/07/16 10:24:05;;;;;;;7.23;4.37;;;10.70;99.90;;;;;;4977036;28;20182;-70
2022/07/16 10:26:34;;;;;;;6.00;4.33;;;11.00;99.90;;;;;;4976808;28;20261;-69
2022/07/16 10:29:04;;;;;;;5.20;3.90;;;11.00;99.90;;;;;;4976702;28;20179;-70
2022/07/16 10:32:27;;;;;;;6.80;4.33;;;11.20;99.90;;;;;;4969118;28;20215;-68
2022/07/16 10:34:38;;;;;;;7.03;4.40;;;11.20;99.90;;;;;;4957320;29;20192;-68
2022/07/16 10:37:10;;;;;;;6.23;4.83;;;11.10;99.90;;;;;;4957332;29;20172;-68
2022/07/16 10:40:01;;;;;;;7.57;4.57;;;11.00;99.90;;;;;;4966908;28;20228;-68
2022/07/16 10:42:29;;;;;;;6.07;4.03;;;11.00;99.90;;;;;;4961644;28;20298;-68
2022/07/16 10:44:57;;;;;;;6.70;4.40;;;11.10;99.90;;;;;;4957125;28;20184;-68
2022/07/16 10:47:46;;;;;;;8.10;4.20;;;11.20;99.90;;;;;;4957841;28;20177;-67
2022/07/16 10:50:19;;;;;;;8.90;4.57;;;11.20;99.90;;;;;;4976094;28;20710;-67
2022/07/16 10:52:48;;;;;;;5.93;3.90;;;11.20;99.90;;;;;;4959237;28;20220;-68
2022/07/16 10:55:34;;;;;;;7.80;4.20;;;11.30;99.90;;;;;;4957048;28;20219;-68
2022/07/16 10:58:03;;;;;;;7.67;4.40;;;11.30;99.90;;;;;;4956976;28;20181;-68
2022/07/16 11:00:31;;;;;;;7.20;4.00;;;11.30;99.90;;;;;;4962105;28;20183;-68
2022/07/16 11:03:01;;;;;;;6.97;4.07;;;11.40;99.90;;;;;;4959997;28;20276;-69
2022/07/16 11:05:30;;;;;;;10.00;3.93;;;11.30;99.90;;;;;;4956874;28;20727;-67
2022/07/16 11:08:11;;;;;;;4.83;3.40;;;11.30;99.90;;;;;;4970966;28;20183;-68
2022/07/16 11:10:40;;;;;;;6.50;3.70;;;11.40;99.90;;;;;;4974381;28;20221;-70
2022/07/16 11:13:16;;;;;;;6.57;4.03;;;11.40;99.90;;;;;;4975849;28;20180;-68
2022/07/16 11:15:44;;;;;;;4.83;3.47;;;11.30;99.90;;;;;;4962223;28;20184;-68
2022/07/16 11:18:20;;;;;;;6.03;3.37;;;11.40;99.90;;;;;;4956439;28;20177;-69
2022/07/16 11:20:48;;;;;;;5.07;3.60;;;11.50;99.90;;;;;;4967918;28;20210;-68
2022/07/16 11:23:17;;;;;;;6.87;3.30;;;11.50;99.90;;;;;;4973081;28;20185;-68
2022/07/16 11:26:00;;;;;;;4.70;2.90;;;11.50;99.90;;;;;;4955237;28;20717;-69
2022/07/16 11:28:29;;;;;;;4.13;2.60;;;11.50;99.90;;;;;;4956234;28;20704;-69
2022/07/16 11:31:08;;;;;;;4.63;2.70;;;11.60;99.90;;;;;;4968451;28;20216;-69
2022/07/16 11:33:36;;;;;;;7.27;2.70;;;11.50;99.90;;;;;;4964468;28;20287;-69
2022/07/16 11:36:08;;;;;;;3.83;2.57;;;11.50;99.90;;;;;;4970977;28;20188;-69
2022/07/16 11:38:36;;;;;;;6.27;2.90;;;11.60;99.90;;;;;;4975171;28;20193;-69
2022/07/16 11:41:03;;;;;;;7.27;4.13;;;11.70;99.90;;;;;;4973146;28;20216;-69
2022/07/16 11:43:31;;;;;;;6.47;3.20;;;12.00;99.90;;;;;;4956027;28;20510;-68
2022/07/16 11:45:59;;;;;;;3.93;1.93;;;12.10;99.90;;;;;;4956261;29;20542;-69
2022/07/16 11:48:36;;;;;;;2.07;1.63;;;12.10;99.90;;;;;;4968452;28;20217;-70
2022/07/16 11:51:09;;;;;;;1.60;1.27;;;12.50;99.90;;;;;;4955714;28;20615;-68
2022/07/16 11:53:37;;;;;;;1.83;1.17;;;12.70;99.90;;;;;;4955621;29;20239;-69
2022/07/16 11:56:06;;;;;;;3.80;1.10;;;12.80;99.90;;;;;;4956051;29;20541;-69
2022/07/16 11:58:34;;;;;;;0.93;0.93;;;13.00;99.90;;;;;;4955967;28;20215;-67
2022/07/16 12:01:02;;;;;;;1.33;1.10;;;13.00;99.90;;;;;;4955625;28;20296;-69
2022/07/16 12:03:30;;;;;;;1.37;1.10;;;13.00;99.90;;;;;;4956262;28;20204;-68
2022/07/16 12:06:05;;;;;;;1.57;1.33;;;13.10;99.90;;;;;;4956192;28;20189;-68
2022/07/16 12:08:36;;;;;;;3.93;1.23;;;13.10;99.90;;;;;;4955866;28;20661;-69
2022/07/16 12:11:06;;;;;;;2.53;1.40;;;13.00;99.90;;;;;;4972505;28;20228;-70
2022/07/16 12:13:42;;;;;;;4.50;1.57;;;12.70;99.90;;;;;;4960976;28;20184;-69
2022/07/16 12:16:09;;;;;;;3.13;1.30;;;12.70;99.90;;;;;;4956574;28;20193;-70
2022/07/16 12:18:37;;;;;;;2.70;1.37;;;12.70;99.90;;;;;;4955607;29;20177;-69
2022/07/16 12:21:28;;;;;;;1.60;1.47;;;12.60;99.90;;;;;;4955340;29;20529;-69
2022/07/16 12:23:56;;;;;;;2.27;1.60;;;12.60;99.90;;;;;;4971809;28;20215;-68
2022/07/16 12:26:35;;;;;;;1.50;1.27;;;12.40;99.90;;;;;;4964008;28;20195;-68
2022/07/16 12:29:05;;;;;;;2.30;1.47;;;12.50;99.90;;;;;;4955456;28;20172;-68
2022/07/16 12:31:34;;;;;;;2.40;1.30;;;12.60;99.90;;;;;;4956194;28;20267;-68
2022/07/16 12:34:04;;;;;;;2.00;1.50;;;12.60;99.90;;;;;;4973548;28;20186;-67
2022/07/16 12:36:38;;;;;;;2.73;1.63;;;12.50;99.90;;;;;;4974930;28;20222;-69
2022/07/16 12:39:11;;;;;;;2.87;1.80;;;12.40;99.90;;;;;;4962810;28;20282;-69
2022/07/16 12:41:45;;;;;;;3.27;2.13;;;12.40;99.90;;;;;;4955260;28;20191;-69
2022/07/16 12:44:15;;;;;;;2.93;1.93;;;12.50;99.90;;;;;;4955105;28;20532;-69
2022/07/16 12:46:51;;;;;;;3.37;1.67;;;12.30;99.90;;;;;;4954958;28;20183;-69
2022/07/16 12:49:21;;;;;;;1.73;1.47;;;12.10;99.90;;;;;;4966884;28;20182;-69
2022/07/16 12:51:52;;;;;;;2.77;1.87;;;12.10;99.90;;;;;;4974385;28;20305;-69
2022/07/16 12:54:21;;;;;;;1.30;1.20;;;12.20;99.90;;;;;;4962776;28;20235;-70
2022/07/16 12:59:35;;;;;;;1.60;1.20;;;12.20;99.90;;;;;;4968765;28;20594;-69
2022/07/16 13:02:07;;;;;;;1.17;1.03;;;12.20;99.90;;;;;;4974282;28;20546;-69
2022/07/16 13:04:35;;;;;;;3.17;1.40;;;12.20;99.90;;;;;;4974119;28;20723;-69